Time;durP1;ratioP1;P1;durP2;ratioP2;P2;SDS_P1;SDS_P2;PMS_P1;PMS_P2;Temp;Humidity;BMP_temperature;BMP_pressure;BME280_temperature;BME280_humidity;BME280_pressure;Samples;Min_cycle;Max_cycle;Signal;HPM_P1;HPM_P2
2021/08/24 04:19:16;;;;;;;6.82;5.47;;;;;;;;;;5250079;23;20062;-74
2021/08/24 04:21:43;;;;;;;10.57;5.65;;;;;;;;;;4986756;28;20050;-73
2021/08/24 04:24:09;;;;;;;9.18;6.05;;;;;;;;;;4976451;28;20039;-67
2021/08/24 04:26:35;;;;;;;9.20;5.25;;;;;;;;;;4975280;28;20034;-66
2021/08/24 04:29:24;;;;;;;7.22;4.72;;;;;;;;;;4979684;28;20074;-72
2021/08/24 04:31:52;;;;;;;6.95;4.80;;;;;;;;;;4975482;28;20069;-72
2021/08/24 04:34:18;;;;;;;6.68;5.22;;;;;;;;;;4973004;28;20487;-69
2021/08/24 04:36:44;;;;;;;6.70;5.25;;;;;;;;;;4974223;28;20027;-66
2021/08/24 04:39:10;;;;;;;8.52;5.60;;;;;;;;;;4979041;28;20404;-67
2021/08/24 04:41:36;;;;;;;7.18;5.97;;;;;;;;;;4976597;28;20027;-69
2021/08/24 04:44:03;;;;;;;10.57;6.32;;;;;;;;;;4965475;28;20039;-67
2021/08/24 04:46:31;;;;;;;8.30;5.75;;;;;;;;;;4975745;28;20062;-70
2021/08/24 04:48:57;;;;;;;8.18;6.43;;;;;;;;;;4982666;28;20537;-66
2021/08/24 04:51:23;;;;;;;11.18;6.63;;;;;;;;;;4976624;28;20029;-70
2021/08/24 04:53:49;;;;;;;7.70;6.00;;;;;;;;;;4986968;28;20023;-67
2021/08/24 04:56:15;;;;;;;7.07;5.22;;;;;;;;;;4975916;28;20031;-65
2021/08/24 04:58:41;;;;;;;8.15;6.15;;;;;;;;;;4980417;28;20029;-69
2021/08/24 05:01:07;;;;;;;7.13;6.13;;;;;;;;;;4976085;28;20065;-70
2021/08/24 05:03:34;;;;;;;8.05;6.63;;;;;;;;;;4974247;28;20023;-66
2021/08/24 05:06:00;;;;;;;11.60;6.63;;;;;;;;;;4975663;28;20070;-69
2021/08/24 05:08:27;;;;;;;10.57;6.63;;;;;;;;;;4978087;28;21331;-70
2021/08/24 05:10:53;;;;;;;6.82;6.00;;;;;;;;;;4975947;28;20085;-70
2021/08/24 05:13:19;;;;;;;8.52;6.53;;;;;;;;;;4974531;28;20384;-70
2021/08/24 05:15:45;;;;;;;8.18;6.10;;;;;;;;;;4975305;28;20023;-69
2021/08/24 05:18:11;;;;;;;8.98;6.50;;;;;;;;;;4975756;28;20039;-67
2021/08/24 05:20:37;;;;;;;8.68;6.60;;;;;;;;;;4992276;28;20050;-70
2021/08/24 05:23:03;;;;;;;8.98;6.43;;;;;;;;;;4994949;28;20034;-67
2021/08/24 05:25:29;;;;;;;8.15;6.28;;;;;;;;;;4994198;28;20046;-69
2021/08/24 05:27:56;;;;;;;6.82;6.10;;;;;;;;;;4993043;28;20045;-70
2021/08/24 05:30:24;;;;;;;7.78;5.70;;;;;;;;;;4993802;28;20507;-78
2021/08/24 05:32:50;;;;;;;7.65;6.50;;;;;;;;;;4993968;28;20031;-64
2021/08/24 05:35:17;;;;;;;8.52;6.93;;;;;;;;;;4992129;28;20049;-65
2021/08/24 05:37:51;;;;;;;7.05;6.03;;;;;;;;;;4991668;28;20030;-73
2021/08/24 05:40:23;;;;;;;7.55;6.05;;;;;;;;;;4984682;28;20034;-74
2021/08/24 05:43:15;;;;;;;9.52;7.15;;;;;;;;;;4992191;28;20038;-76
2021/08/24 05:45:41;;;;;;;8.18;6.25;;;;;;;;;;4932927;29;20052;-73
2021/08/24 05:48:07;;;;;;;11.38;6.15;;;;;;;;;;4933874;29;20044;-70
2021/08/24 05:50:41;;;;;;;8.13;6.57;;;;;;;;;;4934143;29;20036;-89
2021/08/24 05:53:07;;;;;;;7.63;6.45;;;;;;;;;;4917211;29;20039;-66
2021/08/24 05:55:33;;;;;;;8.40;6.32;;;;;;;;;;4933252;29;20525;-67
2021/08/24 05:57:59;;;;;;;6.88;5.80;;;;;;;;;;4933536;29;20629;-69
2021/08/24 06:00:25;;;;;;;8.10;5.88;;;;;;;;;;4933903;29;20364;-70
2021/08/24 06:02:53;;;;;;;10.52;6.75;;;;;;;;;;4932297;29;20425;-65
2021/08/24 06:05:38;;;;;;;;;;;;;;;;;;;;;
2021/08/24 06:08:20;;;;;;;10.48;7.15;;;;;;;;;;4933455;29;20031;-73
2021/08/24 06:10:54;;;;;;;10.88;7.60;;;;;;;;;;4918534;29;20414;-73
2021/08/24 06:13:32;;;;;;;11.80;7.97;;;;;;;;;;4915542;29;20039;-70
2021/08/24 06:16:01;;;;;;;7.75;6.78;;;;;;;;;;4933310;29;20039;-73
2021/08/24 06:18:27;;;;;;;10.25;7.10;;;;;;;;;;4932629;29;20474;-71
2021/08/24 06:21:19;;;;;;;8.15;6.53;;;;;;;;;;4933371;29;20418;-71
2021/08/24 06:24:11;;;;;;;7.47;6.57;;;;;;;;;;4989322;28;20121;-74
2021/08/24 06:26:45;;;;;;;10.02;6.78;;;;;;;;;;4987648;28;20042;-74
2021/08/24 06:29:17;;;;;;;8.57;6.47;;;;;;;;;;4978761;28;20484;-73
2021/08/24 06:31:50;;;;;;;8.20;7.22;;;;;;;;;;4993297;28;20026;-71
2021/08/24 06:34:17;;;;;;;12.10;7.50;;;;;;;;;;4991574;28;20070;-72
2021/08/24 06:36:43;;;;;;;9.55;7.47;;;;;;;;;;4979547;28;20464;-67
2021/08/24 06:39:10;;;;;;;10.80;7.53;;;;;;;;;;4993166;28;20034;-64
2021/08/24 06:41:36;;;;;;;9.38;7.85;;;;;;;;;;4991262;28;20466;-65
2021/08/24 06:44:04;;;;;;;7.53;6.40;;;;;;;;;;4991578;28;20046;-67
2021/08/24 06:46:30;;;;;;;9.77;6.20;;;;;;;;;;4991437;28;20052;-82
2021/08/24 06:48:56;;;;;;;9.32;5.97;;;;;;;;;;4992658;28;20041;-86
2021/08/24 06:51:22;;;;;;;8.55;6.15;;;;;;;;;;4992944;28;20073;-68
2021/08/24 06:53:48;;;;;;;9.65;6.07;;;;;;;;;;4992724;28;20030;-86
2021/08/24 06:56:23;;;;;;;7.70;6.00;;;;;;;;;;4991809;28;20028;-85
2021/08/24 06:58:58;;;;;;;8.05;6.10;;;;;;;;;;4982823;28;20026;-79
2021/08/24 07:01:27;;;;;;;9.25;5.25;;;;;;;;;;4999227;28;20030;-63
2021/08/24 07:03:55;;;;;;;7.82;5.65;;;;;;;;;;4991619;28;20022;-69
2021/08/24 07:06:21;;;;;;;8.65;6.72;;;;;;;;;;4990769;28;20083;-68
2021/08/24 07:08:50;;;;;;;9.63;7.43;;;;;;;;;;4992913;28;20022;-71
2021/08/24 07:11:19;;;;;;;8.15;6.85;;;;;;;;;;4992676;28;20493;-71
2021/08/24 07:13:45;;;;;;;8.55;7.28;;;;;;;;;;4984052;28;20022;-70
2021/08/24 07:16:14;;;;;;;11.63;7.63;;;;;;;;;;4988974;28;20073;-76
2021/08/24 07:18:40;;;;;;;9.73;8.15;;;;;;;;;;4970441;28;20101;-70
2021/08/24 07:21:06;;;;;;;9.57;7.50;;;;;;;;;;4972428;28;20068;-72
2021/08/24 07:23:32;;;;;;;8.40;6.47;;;;;;;;;;4976946;28;20022;-72
2021/08/24 07:25:58;;;;;;;11.48;6.72;;;;;;;;;;4985753;28;20046;-73
2021/08/24 07:28:25;;;;;;;9.05;6.60;;;;;;;;;;4987248;28;20373;-74
2021/08/24 07:30:52;;;;;;;8.55;6.70;;;;;;;;;;4988574;28;20026;-75
2021/08/24 07:33:19;;;;;;;11.38;6.20;;;;;;;;;;4989949;28;20480;-72
2021/08/24 07:35:47;;;;;;;7.78;5.55;;;;;;;;;;4984485;28;20144;-71
2021/08/24 07:38:25;;;;;;;7.65;5.55;;;;;;;;;;4988939;28;20480;-75
2021/08/24 07:40:51;;;;;;;6.85;5.45;;;;;;;;;;4969771;28;20563;-73
2021/08/24 07:43:18;;;;;;;10.25;6.43;;;;;;;;;;4991044;28;20109;-71
2021/08/24 07:45:57;;;;;;;18.33;7.38;;;;;;;;;;4992971;28;20043;-70
2021/08/24 07:48:46;;;;;;;12.48;6.38;;;;;;;;;;5003592;28;20034;-71
2021/08/24 07:51:13;;;;;;;15.70;6.45;;;;;;;;;;4912582;29;20035;-66
2021/08/24 07:53:39;;;;;;;13.35;6.45;;;;;;;;;;4913165;29;20051;-66
2021/08/24 07:56:38;;;;;;;9.60;6.60;;;;;;;;;;4913175;29;20054;-79
2021/08/24 07:59:04;;;;;;;10.20;6.53;;;;;;;;;;4907882;29;20048;-84
2021/08/24 08:01:31;;;;;;;9.57;7.72;;;;;;;;;;4913922;29;20159;-82
2021/08/24 08:03:57;;;;;;;8.63;7.70;;;;;;;;;;4916215;29;20434;-73
2021/08/24 08:06:23;;;;;;;10.77;8.98;;;;;;;;;;4914206;29;20044;-73
2021/08/24 08:08:49;;;;;;;11.40;10.18;;;;;;;;;;4907196;29;20120;-73
2021/08/24 08:11:18;;;;;;;11.23;9.73;;;;;;;;;;4914342;29;20044;-72
2021/08/24 08:13:45;;;;;;;12.02;10.38;;;;;;;;;;4911428;29;20032;-70
2021/08/24 08:16:11;;;;;;;13.50;10.68;;;;;;;;;;4916446;29;20048;-71
2021/08/24 08:21:55;;;;;;;13.15;11.38;;;;;;;;;;4907483;29;20063;-71
2021/08/24 08:24:35;;;;;;;13.57;10.18;;;;;;;;;;4903423;29;20032;-75
2021/08/24 08:27:07;;;;;;;9.82;7.80;;;;;;;;;;4899597;29;20048;-71
2021/08/24 08:29:34;;;;;;;9.65;7.70;;;;;;;;;;4983383;28;20174;-71
2021/08/24 08:32:11;;;;;;;7.80;6.95;;;;;;;;;;4988695;28;20049;-70
2021/08/24 08:35:03;;;;;;;7.97;7.18;;;;;;;;;;4990499;28;20121;-70
2021/08/24 08:37:29;;;;;;;8.07;7.18;;;;;;;;;;4967514;28;20026;-76
2021/08/24 08:39:55;;;;;;;8.52;7.07;;;;;;;;;;4994516;28;20030;-82
2021/08/24 08:42:42;;;;;;;8.43;7.30;;;;;;;;;;4980565;28;20034;-75
2021/08/24 08:45:30;;;;;;;10.05;7.20;;;;;;;;;;4991502;28;20037;-70
2021/08/24 08:48:02;;;;;;;11.52;6.88;;;;;;;;;;4969355;28;20045;-73
2021/08/24 08:51:03;;;;;;;10.85;7.18;;;;;;;;;;4994172;28;20039;-71
2021/08/24 08:53:32;;;;;;;9.65;7.13;;;;;;;;;;4994823;28;20504;-70
2021/08/24 08:56:15;;;;;;;12.30;6.05;;;;;;;;;;4994390;28;20037;-71
2021/08/24 08:58:57;;;;;;;6.65;5.22;;;;;;;;;;4960895;28;20053;-71
2021/08/24 09:01:26;;;;;;;6.65;4.88;;;;;;;;;;4991886;28;20030;-70
2021/08/24 09:03:55;;;;;;;10.57;6.20;;;;;;;;;;4993668;28;20034;-68
2021/08/24 09:06:23;;;;;;;9.32;5.72;;;;;;;;;;4982114;28;20510;-68
2021/08/24 09:08:50;;;;;;;11.32;6.28;;;;;;;;;;4995055;28;20108;-71
2021/08/24 09:11:16;;;;;;;9.60;6.20;;;;;;;;;;4994207;28;20026;-68
2021/08/24 09:13:52;;;;;;;6.57;5.18;;;;;;;;;;4981399;28;20085;-69
2021/08/24 09:16:18;;;;;;;10.20;5.55;;;;;;;;;;4995772;28;20090;-72
2021/08/24 09:18:53;;;;;;;9.02;5.05;;;;;;;;;;4980643;28;20030;-75
2021/08/24 09:21:23;;;;;;;8.60;5.25;;;;;;;;;;4994598;28;20034;-71
2021/08/24 09:23:51;;;;;;;11.63;4.97;;;;;;;;;;4975966;28;20029;-68
2021/08/24 09:26:35;;;;;;;11.43;5.25;;;;;;;;;;4986630;28;20042;-65
2021/08/24 09:29:01;;;;;;;12.50;5.70;;;;;;;;;;4991760;28;20022;-67
2021/08/24 09:31:27;;;;;;;13.13;6.10;;;;;;;;;;4994487;28;20034;-66
2021/08/24 09:33:54;;;;;;;15.63;5.60;;;;;;;;;;4994029;28;20030;-66
2021/08/24 09:36:22;;;;;;;9.77;5.15;;;;;;;;;;4994020;28;20043;-66
2021/08/24 09:38:55;;;;;;;11.23;5.40;;;;;;;;;;4993198;28;20477;-77
2021/08/24 09:41:29;;;;;;;10.88;6.97;;;;;;;;;;4986511;28;20033;-71
2021/08/24 09:44:15;;;;;;;12.98;7.22;;;;;;;;;;4992434;28;20033;-71
2021/08/24 09:46:41;;;;;;;15.02;6.90;;;;;;;;;;4992908;28;20511;-65
2021/08/24 09:49:09;;;;;;;24.05;7.22;;;;;;;;;;4994485;28;20022;-64
2021/08/24 09:51:36;;;;;;;15.75;6.55;;;;;;;;;;4994231;28;20374;-66
2021/08/24 09:54:05;;;;;;;8.07;4.93;;;;;;;;;;4993887;28;20038;-62
2021/08/24 09:56:36;;;;;;;7.07;5.13;;;;;;;;;;4992868;28;20394;-68
2021/08/24 09:59:02;;;;;;;6.28;5.40;;;;;;;;;;4993635;28;20508;-64
2021/08/24 10:01:43;;;;;;;9.60;5.60;;;;;;;;;;4993508;28;20143;-69
2021/08/24 10:04:09;;;;;;;14.48;7.10;;;;;;;;;;4992564;28;20105;-68
2021/08/24 10:06:39;;;;;;;18.55;7.80;;;;;;;;;;4988162;28;20495;-64
2021/08/24 10:09:33;;;;;;;21.02;7.70;;;;;;;;;;4983917;28;20058;-74
2021/08/24 10:12:39;;;;;;;;;;;;;;;;;;;;;
2021/08/24 10:15:26;;;;;;;10.63;5.68;;;;;;;;;;4934136;29;20050;-71
2021/08/24 10:18:13;;;;;;;22.45;6.18;;;;;;;;;;4928712;29;20043;-73
2021/08/24 10:23:58;;;;;;;14.02;6.25;;;;;;;;;;4943744;29;20039;-74
2021/08/24 10:26:32;;;;;;;16.30;6.18;;;;;;;;;;4937230;29;20631;-74
2021/08/24 10:29:00;;;;;;;12.45;5.70;;;;;;;;;;4932552;29;20512;-74
2021/08/24 10:31:28;;;;;;;10.02;5.10;;;;;;;;;;4932179;29;20086;-72
2021/08/24 10:33:59;;;;;;;11.02;5.90;;;;;;;;;;4937237;29;20031;-69
2021/08/24 10:36:33;;;;;;;10.32;5.88;;;;;;;;;;4936861;29;20088;-74
2021/08/24 10:39:02;;;;;;;11.75;6.00;;;;;;;;;;4931805;29;20060;-72
2021/08/24 10:41:31;;;;;;;16.13;7.38;;;;;;;;;;4939541;28;20028;-73
2021/08/24 10:43:59;;;;;;;17.75;7.30;;;;;;;;;;4936558;29;20066;-72
2021/08/24 10:46:28;;;;;;;15.95;7.20;;;;;;;;;;4933420;29;20486;-73
2021/08/24 10:49:15;;;;;;;16.10;7.07;;;;;;;;;;4959694;28;20054;-70
2021/08/24 10:51:45;;;;;;;9.55;5.57;;;;;;;;;;4955998;28;20046;-70
2021/08/24 10:54:30;;;;;;;8.80;5.63;;;;;;;;;;4988736;28;20034;-84
2021/08/24 10:57:08;;;;;;;10.02;6.50;;;;;;;;;;4984921;28;20393;-72
2021/08/24 10:59:40;;;;;;;9.07;5.65;;;;;;;;;;4980482;28;20038;-70
2021/08/24 11:02:18;;;;;;;9.23;5.90;;;;;;;;;;4992469;28;20442;-70
2021/08/24 11:04:50;;;;;;;9.50;5.50;;;;;;;;;;4990348;28;20656;-65
2021/08/24 11:07:40;;;;;;;7.22;4.85;;;;;;;;;;4991140;28;20058;-77
2021/08/24 11:10:13;;;;;;;8.02;5.70;;;;;;;;;;4964122;28;20133;-72
2021/08/24 11:13:00;;;;;;;7.82;5.03;;;;;;;;;;4990408;28;20026;-69
2021/08/24 11:15:29;;;;;;;11.18;5.60;;;;;;;;;;4988775;28;20030;-71
2021/08/24 11:18:13;;;;;;;8.30;5.43;;;;;;;;;;4992317;28;20041;-76
2021/08/24 11:20:47;;;;;;;10.00;5.50;;;;;;;;;;4983495;28;20074;-72
2021/08/24 11:23:22;;;;;;;8.75;5.43;;;;;;;;;;4969946;28;20728;-68
2021/08/24 11:25:50;;;;;;;12.20;5.60;;;;;;;;;;4990639;28;20046;-67
2021/08/24 11:28:28;;;;;;;12.80;6.00;;;;;;;;;;4990977;28;20369;-65
2021/08/24 11:31:03;;;;;;;10.05;5.82;;;;;;;;;;4991107;28;20044;-66
2021/08/24 11:33:35;;;;;;;10.60;5.97;;;;;;;;;;4988748;28;21480;-64
2021/08/24 11:38:59;;;;;;;14.45;7.22;;;;;;;;;;4986446;28;20034;-68
2021/08/24 11:41:26;;;;;;;13.68;6.53;;;;;;;;;;4988641;28;20039;-68
2021/08/24 11:44:00;;;;;;;11.43;6.07;;;;;;;;;;4990375;28;20146;-68
2021/08/24 11:46:30;;;;;;;9.88;5.72;;;;;;;;;;4975685;28;20555;-68
2021/08/24 11:49:03;;;;;;;9.95;5.10;;;;;;;;;;4988058;28;20034;-68
2021/08/24 11:51:34;;;;;;;7.80;4.40;;;;;;;;;;4992630;28;20030;-66
2021/08/24 11:54:06;;;;;;;9.38;4.55;;;;;;;;;;4991459;28;20072;-66
2021/08/24 11:56:32;;;;;;;10.77;4.27;;;;;;;;;;4992138;28;20056;-65
2021/08/24 11:59:00;;;;;;;8.30;4.28;;;;;;;;;;4985318;28;20054;-68
2021/08/24 12:01:27;;;;;;;14.82;5.35;;;;;;;;;;4990312;28;20054;-62
2021/08/24 12:03:59;;;;;;;8.38;4.63;;;;;;;;;;4986103;28;20026;-65
2021/08/24 12:06:28;;;;;;;8.88;4.43;;;;;;;;;;4990846;28;20037;-68
2021/08/24 12:08:56;;;;;;;8.60;5.00;;;;;;;;;;4991887;28;20030;-69
2021/08/24 12:11:25;;;;;;;7.43;5.18;;;;;;;;;;4991665;28;20121;-73
2021/08/24 12:13:54;;;;;;;7.95;6.13;;;;;;;;;;4973644;28;20023;-73
2021/08/24 12:16:23;;;;;;;7.97;4.80;;;;;;;;;;4987909;28;20036;-74
2021/08/24 12:19:00;;;;;;;9.10;4.38;;;;;;;;;;4992009;28;20039;-71
2021/08/24 12:21:52;;;;;;;8.85;4.38;;;;;;;;;;4974119;28;20081;-71
2021/08/24 12:24:38;;;;;;;6.55;4.65;;;;;;;;;;4973725;28;20043;-72
2021/08/24 12:27:04;;;;;;;8.40;4.07;;;;;;;;;;4899549;29;20116;-72
2021/08/24 12:29:49;;;;;;;7.70;4.25;;;;;;;;;;4912279;29;20240;-72
2021/08/24 12:32:21;;;;;;;5.80;3.92;;;;;;;;;;4896410;29;20052;-67
2021/08/24 12:34:51;;;;;;;8.23;4.95;;;;;;;;;;4910486;29;20047;-66
2021/08/24 12:37:19;;;;;;;6.63;4.40;;;;;;;;;;4907017;29;20063;-67
2021/08/24 12:39:48;;;;;;;6.57;4.65;;;;;;;;;;4913330;29;20413;-72
2021/08/24 12:42:23;;;;;;;6.15;4.57;;;;;;;;;;4893954;29;20482;-70
2021/08/24 12:45:30;;;;;;;6.03;4.63;;;;;;;;;;4896744;29;20131;-72
2021/08/24 12:48:14;;;;;;;8.30;4.45;;;;;;;;;;4914205;29;20052;-66
2021/08/24 12:50:40;;;;;;;14.10;4.70;;;;;;;;;;4915994;29;20044;-67
2021/08/24 12:53:25;;;;;;;8.88;4.55;;;;;;;;;;4915509;29;20040;-67
2021/08/24 12:55:51;;;;;;;9.25;5.25;;;;;;;;;;4916478;29;20487;-68
2021/08/24 12:58:27;;;;;;;12.50;5.13;;;;;;;;;;4908995;29;20052;-68
2021/08/24 13:01:11;;;;;;;9.82;5.13;;;;;;;;;;4915372;29;20406;-68
2021/08/24 13:03:38;;;;;;;8.25;4.55;;;;;;;;;;4934678;28;20042;-67
2021/08/24 13:06:19;;;;;;;5.93;4.70;;;;;;;;;;4995282;28;20034;-66
2021/08/24 13:08:46;;;;;;;11.10;5.38;;;;;;;;;;4994980;28;20018;-67
2021/08/24 13:11:27;;;;;;;8.23;5.00;;;;;;;;;;4994743;28;20026;-68
2021/08/24 13:13:55;;;;;;;6.53;4.57;;;;;;;;;;4984579;28;20121;-79
2021/08/24 13:16:25;;;;;;;5.88;3.78;;;;;;;;;;4993083;28;20563;-69
2021/08/24 13:18:55;;;;;;;6.75;4.03;;;;;;;;;;4993519;28;20038;-72
2021/08/24 13:21:21;;;;;;;8.18;4.38;;;;;;;;;;4988685;28;20078;-71
2021/08/24 13:23:48;;;;;;;6.95;4.43;;;;;;;;;;4977970;28;20400;-67
2021/08/24 13:26:21;;;;;;;5.05;4.40;;;;;;;;;;4986463;28;20034;-67
2021/08/24 13:28:58;;;;;;;5.13;4.10;;;;;;;;;;4972676;28;20580;-67
2021/08/24 13:31:46;;;;;;;12.60;4.40;;;;;;;;;;4976315;28;20078;-68
2021/08/24 13:34:32;;;;;;;10.75;5.13;;;;;;;;;;4988507;28;20034;-67
2021/08/24 13:36:58;;;;;;;10.73;4.55;;;;;;;;;;4983838;28;20030;-66
2021/08/24 13:39:24;;;;;;;7.15;4.30;;;;;;;;;;4988866;28;20094;-67
2021/08/24 13:41:55;;;;;;;6.90;4.50;;;;;;;;;;4986152;28;20022;-67
2021/08/24 13:44:41;;;;;;;10.25;4.78;;;;;;;;;;4990429;28;20026;-66
2021/08/24 13:47:14;;;;;;;10.23;4.65;;;;;;;;;;4986765;28;20073;-67
2021/08/24 13:49:40;;;;;;;7.65;4.72;;;;;;;;;;4988216;28;20058;-67
2021/08/24 13:52:06;;;;;;;6.32;4.20;;;;;;;;;;4988050;28;20037;-67
2021/08/24 13:54:36;;;;;;;8.05;4.70;;;;;;;;;;4992155;28;20030;-67
2021/08/24 13:57:04;;;;;;;9.68;4.63;;;;;;;;;;4989764;28;20504;-67
2021/08/24 13:59:34;;;;;;;9.80;4.95;;;;;;;;;;4988007;28;20091;-66
2021/08/24 14:02:01;;;;;;;9.20;4.38;;;;;;;;;;4993029;28;20121;-68
2021/08/24 14:04:44;;;;;;;7.85;4.50;;;;;;;;;;4981249;28;20090;-67
2021/08/24 14:07:22;;;;;;;7.85;4.72;;;;;;;;;;4990076;28;20034;-67
2021/08/24 14:09:56;;;;;;;8.07;4.53;;;;;;;;;;4986183;28;20027;-68
2021/08/24 14:12:24;;;;;;;10.40;5.07;;;;;;;;;;4987301;28;20038;-67
2021/08/24 14:15:04;;;;;;;8.48;4.85;;;;;;;;;;4991730;28;20074;-68
2021/08/24 14:17:36;;;;;;;11.50;5.40;;;;;;;;;;4991726;28;20033;-68
2021/08/24 14:20:08;;;;;;;8.00;5.13;;;;;;;;;;4991285;28;20065;-65
2021/08/24 14:22:34;;;;;;;7.57;4.60;;;;;;;;;;4986671;28;20468;-67
2021/08/24 14:25:01;;;;;;;7.10;5.35;;;;;;;;;;4985005;28;20035;-66
2021/08/24 14:27:27;;;;;;;7.90;5.20;;;;;;;;;;4980865;28;20042;-67
2021/08/24 14:29:54;;;;;;;6.90;4.93;;;;;;;;;;4987952;28;20500;-67
2021/08/24 14:32:34;;;;;;;7.47;4.88;;;;;;;;;;4992785;28;20066;-67
2021/08/24 14:35:00;;;;;;;7.10;4.90;;;;;;;;;;4992404;28;20046;-67
2021/08/24 14:37:27;;;;;;;6.55;4.82;;;;;;;;;;4990852;28;20476;-67
2021/08/24 14:39:58;;;;;;;7.25;4.68;;;;;;;;;;4992770;28;20030;-65
2021/08/24 14:42:29;;;;;;;6.72;4.65;;;;;;;;;;4993054;28;20549;-65
2021/08/24 14:44:56;;;;;;;7.38;4.43;;;;;;;;;;4992556;28;20058;-65
2021/08/24 14:47:28;;;;;;;7.40;4.70;;;;;;;;;;4985713;28;20050;-67
2021/08/24 14:49:54;;;;;;;8.95;4.95;;;;;;;;;;4991536;28;20025;-65
2021/08/24 14:52:23;;;;;;;7.40;5.20;;;;;;;;;;4993323;28;20535;-69
2021/08/24 14:54:54;;;;;;;9.25;4.85;;;;;;;;;;4993252;28;20479;-66
2021/08/24 14:57:21;;;;;;;7.13;5.15;;;;;;;;;;4992954;28;20480;-66
2021/08/24 14:59:47;;;;;;;10.00;5.45;;;;;;;;;;4992014;28;20027;-65
2021/08/24 15:02:14;;;;;;;7.10;4.82;;;;;;;;;;4991381;28;20046;-65
2021/08/24 15:04:42;;;;;;;9.05;5.53;;;;;;;;;;4992196;28;20060;-67
2021/08/24 15:07:12;;;;;;;8.93;4.65;;;;;;;;;;4987168;28;20038;-67
2021/08/24 15:09:41;;;;;;;10.43;5.03;;;;;;;;;;4989362;28;20065;-67
2021/08/24 15:12:16;;;;;;;8.52;5.18;;;;;;;;;;4992822;28;20038;-67
2021/08/24 15:14:45;;;;;;;8.60;5.40;;;;;;;;;;4987033;28;20032;-66
2021/08/24 15:17:13;;;;;;;7.72;4.60;;;;;;;;;;4993026;28;20031;-67
2021/08/24 15:19:42;;;;;;;6.53;4.55;;;;;;;;;;4991937;28;20046;-65
2021/08/24 15:22:20;;;;;;;8.68;4.85;;;;;;;;;;4991106;28;20114;-66
2021/08/24 15:24:47;;;;;;;7.05;4.40;;;;;;;;;;4990721;28;20038;-86
2021/08/24 15:27:18;;;;;;;7.03;4.78;;;;;;;;;;4988678;28;20061;-73
2021/08/24 15:30:01;;;;;;;7.85;4.28;;;;;;;;;;4991257;28;20114;-74
2021/08/24 15:32:27;;;;;;;8.25;4.65;;;;;;;;;;4985011;28;20034;-70
2021/08/24 15:34:53;;;;;;;8.10;4.22;;;;;;;;;;4987927;28;20027;-68
2021/08/24 15:37:22;;;;;;;5.10;4.30;;;;;;;;;;4987252;28;20082;-81
2021/08/24 15:39:48;;;;;;;6.47;4.40;;;;;;;;;;4979380;28;20109;-78
2021/08/24 15:42:19;;;;;;;5.65;4.38;;;;;;;;;;4985955;28;20097;-75
2021/08/24 15:44:45;;;;;;;6.47;4.22;;;;;;;;;;4988727;28;20117;-76
2021/08/24 15:47:11;;;;;;;5.75;4.60;;;;;;;;;;4989921;28;20038;-76
2021/08/24 15:49:37;;;;;;;10.90;4.60;;;;;;;;;;5001036;28;20384;-80
2021/08/24 15:52:17;;;;;;;8.25;4.85;;;;;;;;;;4976298;28;20129;-78
2021/08/24 15:54:51;;;;;;;8.10;4.85;;;;;;;;;;4971499;28;20085;-74
2021/08/24 15:57:18;;;;;;;6.55;4.70;;;;;;;;;;4969590;28;20404;-75
2021/08/24 15:59:44;;;;;;;9.07;4.70;;;;;;;;;;4991960;28;20034;-76
2021/08/24 16:02:11;;;;;;;6.40;4.55;;;;;;;;;;4991725;28;20031;-69
2021/08/24 16:04:37;;;;;;;8.20;4.53;;;;;;;;;;4991373;28;20042;-76
2021/08/24 16:07:05;;;;;;;7.60;4.55;;;;;;;;;;4992032;28;20050;-74
2021/08/24 16:09:58;;;;;;;10.15;4.80;;;;;;;;;;4986404;28;20517;-75
2021/08/24 16:12:24;;;;;;;8.70;5.00;;;;;;;;;;4985028;28;20037;-66
2021/08/24 16:14:50;;;;;;;8.63;4.90;;;;;;;;;;4987829;28;20569;-65
2021/08/24 16:17:16;;;;;;;6.60;4.43;;;;;;;;;;4991056;28;20512;-67
2021/08/24 16:19:42;;;;;;;7.10;5.10;;;;;;;;;;4991195;28;20512;-65
2021/08/24 16:22:18;;;;;;;6.90;4.30;;;;;;;;;;4995547;28;20022;-67
2021/08/24 16:24:44;;;;;;;6.45;4.97;;;;;;;;;;4994332;28;20022;-65
2021/08/24 16:27:12;;;;;;;7.07;4.40;;;;;;;;;;4981771;28;20058;-67
2021/08/24 16:29:38;;;;;;;7.68;4.75;;;;;;;;;;4993999;28;20055;-65
2021/08/24 16:32:04;;;;;;;8.15;5.00;;;;;;;;;;4995558;28;20018;-68
2021/08/24 16:34:30;;;;;;;6.45;4.80;;;;;;;;;;4984679;28;20081;-81
2021/08/24 16:36:56;;;;;;;7.25;4.88;;;;;;;;;;4993813;28;20485;-91
2021/08/24 16:39:22;;;;;;;7.50;4.80;;;;;;;;;;4991163;28;20086;-89
2021/08/24 16:41:48;;;;;;;7.55;4.55;;;;;;;;;;4979026;28;20152;-67
2021/08/24 16:44:15;;;;;;;4.95;4.30;;;;;;;;;;4993061;28;20480;-86
2021/08/24 16:46:41;;;;;;;7.80;4.55;;;;;;;;;;4995513;28;20042;-70
2021/08/24 16:49:07;;;;;;;7.43;4.70;;;;;;;;;;4983524;28;20022;-68
2021/08/24 16:51:33;;;;;;;6.18;5.10;;;;;;;;;;4993109;28;20030;-69
2021/08/24 16:53:59;;;;;;;7.63;4.85;;;;;;;;;;4988341;28;20078;-68
2021/08/24 16:56:26;;;;;;;5.32;4.82;;;;;;;;;;4985309;28;20382;-75
2021/08/24 16:58:52;;;;;;;7.28;5.00;;;;;;;;;;4994456;28;20031;-71
2021/08/24 17:01:18;;;;;;;7.88;5.35;;;;;;;;;;4990110;28;20117;-65
2021/08/24 17:03:44;;;;;;;8.45;5.15;;;;;;;;;;4994955;28;20041;-73
2021/08/24 17:06:10;;;;;;;7.85;5.45;;;;;;;;;;4994874;28;20034;-74
2021/08/24 17:08:36;;;;;;;8.98;5.63;;;;;;;;;;4992779;28;20392;-74
2021/08/24 17:11:02;;;;;;;10.05;6.10;;;;;;;;;;4995333;28;20035;-75
2021/08/24 17:13:29;;;;;;;11.15;6.40;;;;;;;;;;4995159;28;20030;-69
2021/08/24 17:15:55;;;;;;;13.45;7.03;;;;;;;;;;4994895;28;20022;-75
2021/08/24 17:18:21;;;;;;;17.65;8.50;;;;;;;;;;4994209;28;20538;-74
2021/08/24 17:20:49;;;;;;;19.02;7.88;;;;;;;;;;4993766;28;20039;-73
2021/08/24 17:23:15;;;;;;;14.57;6.93;;;;;;;;;;4968088;28;20400;-70
2021/08/24 17:25:49;;;;;;;12.15;6.93;;;;;;;;;;4991113;28;20030;-73
2021/08/24 17:28:23;;;;;;;11.18;6.28;;;;;;;;;;4976102;28;20564;-74
2021/08/24 17:30:48;;;;;;;;;;;;;;;;;;4991583;28;20029;-73
2021/08/24 17:33:18;;;;;;;8.68;5.88;;;;;;;;;;4994367;28;19910;-70
2021/08/24 17:35:44;;;;;;;9.65;6.00;;;;;;;;;;4992387;28;20039;-73
2021/08/24 17:38:10;;;;;;;10.73;5.53;;;;;;;;;;4992514;28;20026;-72
2021/08/24 17:40:36;;;;;;;10.65;6.15;;;;;;;;;;4989080;28;20101;-72
2021/08/24 17:43:03;;;;;;;7.85;6.03;;;;;;;;;;4984989;28;20109;-68
2021/08/24 17:45:31;;;;;;;8.68;6.00;;;;;;;;;;4984918;28;20548;-70
2021/08/24 17:48:06;;;;;;;11.43;6.28;;;;;;;;;;4985142;28;20026;-72
2021/08/24 17:50:41;;;;;;;8.48;5.90;;;;;;;;;;4994199;28;20038;-75
2021/08/24 17:53:07;;;;;;;11.73;6.22;;;;;;;;;;4986775;28;20373;-73
2021/08/24 17:55:33;;;;;;;10.13;6.22;;;;;;;;;;4984667;28;20373;-71
2021/08/24 17:57:59;;;;;;;9.52;5.90;;;;;;;;;;4994220;28;20392;-72
2021/08/24 18:00:25;;;;;;;9.80;6.38;;;;;;;;;;4981252;28;20380;-71
2021/08/24 18:02:51;;;;;;;11.25;6.20;;;;;;;;;;4992209;28;20050;-73
2021/08/24 18:05:32;;;;;;;7.57;5.55;;;;;;;;;;4988887;28;20030;-72
2021/08/24 18:07:58;;;;;;;8.32;6.45;;;;;;;;;;4988363;28;20504;-75
2021/08/24 18:10:25;;;;;;;10.27;6.05;;;;;;;;;;4985215;28;20075;-73
2021/08/24 18:12:52;;;;;;;8.32;5.80;;;;;;;;;;4990013;28;20022;-73
2021/08/24 18:15:24;;;;;;;9.43;5.45;;;;;;;;;;4988109;28;20177;-64
2021/08/24 18:17:50;;;;;;;7.95;5.55;;;;;;;;;;4991180;28;20022;-73
2021/08/24 18:20:16;;;;;;;9.50;5.30;;;;;;;;;;4983870;28;20050;-71
2021/08/24 18:22:42;;;;;;;9.48;5.90;;;;;;;;;;4992268;28;20027;-75
2021/08/24 18:25:08;;;;;;;6.18;5.15;;;;;;;;;;4990929;28;20433;-68
2021/08/24 18:27:34;;;;;;;9.90;5.32;;;;;;;;;;4986066;28;20081;-72
2021/08/24 18:30:00;;;;;;;7.20;5.28;;;;;;;;;;4990849;28;20026;-68
2021/08/24 18:32:26;;;;;;;8.82;5.07;;;;;;;;;;4990979;28;20089;-72
2021/08/24 18:34:52;;;;;;;7.03;5.72;;;;;;;;;;4992737;28;20015;-67
2021/08/24 18:37:18;;;;;;;6.20;5.30;;;;;;;;;;4984845;28;20082;-74
2021/08/24 18:39:44;;;;;;;6.32;4.90;;;;;;;;;;4992142;28;20026;-65
2021/08/24 18:42:10;;;;;;;6.60;5.10;;;;;;;;;;4991655;28;20030;-72
2021/08/24 18:44:36;;;;;;;6.28;4.65;;;;;;;;;;4991984;28;20018;-74
2021/08/24 18:47:03;;;;;;;6.47;5.30;;;;;;;;;;4990660;28;20046;-67
2021/08/24 18:49:29;;;;;;;7.78;5.22;;;;;;;;;;4992502;28;20090;-66
2021/08/24 18:51:55;;;;;;;8.13;5.55;;;;;;;;;;4992086;28;20030;-75
2021/08/24 18:54:21;;;;;;;7.25;5.35;;;;;;;;;;4990919;28;20073;-72
2021/08/24 18:56:47;;;;;;;6.53;5.03;;;;;;;;;;4991601;28;20157;-72
2021/08/24 18:59:13;;;;;;;6.90;4.97;;;;;;;;;;4992239;28;20380;-73
2021/08/24 19:01:43;;;;;;;6.50;5.05;;;;;;;;;;4990753;28;20096;-71
2021/08/24 19:04:14;;;;;;;11.38;5.43;;;;;;;;;;4990028;28;20023;-67
2021/08/24 19:06:41;;;;;;;10.70;5.35;;;;;;;;;;4989556;28;20392;-74
2021/08/24 19:09:07;;;;;;;9.90;5.30;;;;;;;;;;4991732;28;20023;-69
2021/08/24 19:11:34;;;;;;;7.20;4.88;;;;;;;;;;4991998;28;20042;-76
2021/08/24 19:14:01;;;;;;;9.35;4.70;;;;;;;;;;4988940;28;20041;-69
2021/08/24 19:16:28;;;;;;;8.18;4.82;;;;;;;;;;4988353;28;20034;-69
2021/08/24 19:18:55;;;;;;;7.28;4.57;;;;;;;;;;4987777;28;20097;-69
2021/08/24 19:21:22;;;;;;;8.00;5.05;;;;;;;;;;4949288;28;1239862;-67
2021/08/24 19:23:49;;;;;;;9.27;4.75;;;;;;;;;;4991277;28;20023;-69
2021/08/24 19:26:16;;;;;;;7.65;4.65;;;;;;;;;;4987420;28;20054;-67
2021/08/24 19:28:43;;;;;;;6.47;4.30;;;;;;;;;;4989677;28;20027;-73